Portada
METAR-TAF:

METAR-TAF

Aeroports :

Camagüey, Cuba

latitud: 21-25N, longitud: 077-51W, altitud: 122 m

Observació

L'informe es va fer fa 1 hora i 7 minuts, a les 09:50 UTC
Vent 4 kt del Est
Temperatura 22°C
Humitat 100%
Pressió 1013 hPa
Visibilitat: 9000 m
Escasses núvols a una alçada de 1600 ft

METAR: MUCM 120950Z 08004KT 9000 FEW016 22/22 Q1013

Hora: 05:57 (10:57 UTC)

Pronòstic

L'informe es va fer fa 5 hores i 57 minuts, a les 05:00 UTC
Pronòstic vàlid del 12 a les 06 UTC al 13 a les 06 UTC
Vent 5 kt del Nord/Nord-Est
Visibilitat: 9000 m
Escasses núvols a una alçada de 2000 ft
Evolucionant progressivament
l' 12 a les 15 UTC al 12 a les 17 UTC
Vent 12 kt del Nord/Nord-Est
Núvols disperses a una alçada de 2000 ft
Evolucionant progressivament
l' 13 a les 01 UTC al 13 a les 03 UTC
Vent 5 kt del Nord/Nord-Est
Escasses núvols a una alçada de 2000 ft

TAF: MUCM 120500Z 1206/1306 03005KT 9000 FEW020 BECMG 1215/1217 03012KT SCT020 BECMG 1301/1303 03005KT FEW020

Observacions i pronòstics meteorològics de més de 4000 aeroports (METAR i TAF).

Les estacions disponibles són els punts grocs i vermells al mapa.

Posi el ratolí al punt desitjat per veure el nom de l'estació.

Feu clic per veure les observacions i els pronòstics meteorològics.

Per canviar el mapa: feu clic els botons verds amb una creu de color negre per apropar; al botó verd amb un guió per allunyar la imatge; o en les fletxes verdes per a mapes adjacents.


METAR-TAF: